sensor_id;sensor_type;location;lat;lon;timestamp;P1;durP1;ratioP1;P2;durP2;ratioP2
20713;SDS011;10518;50.742;4.226;2023-08-12T00:00:26;6.07;;;1.77;;
20713;SDS011;10518;50.742;4.226;2023-08-12T00:02:52;3.55;;;1.80;;
20713;SDS011;10518;50.742;4.226;2023-08-12T00:05:18;6.65;;;2.22;;
20713;SDS011;10518;50.742;4.226;2023-08-12T00:07:43;3.92;;;1.80;;
20713;SDS011;10518;50.742;4.226;2023-08-12T00:10:10;4.07;;;2.45;;
20713;SDS011;10518;50.742;4.226;2023-08-12T00:12:37;5.60;;;2.67;;
20713;SDS011;10518;50.742;4.226;2023-08-12T00:15:03;4.60;;;2.22;;
20713;SDS011;10518;50.742;4.226;2023-08-12T00:17:31;4.22;;;2.00;;
20713;SDS011;10518;50.742;4.226;2023-08-12T00:19:57;5.38;;;2.30;;
20713;SDS011;10518;50.742;4.226;2023-08-12T00:22:23;4.22;;;2.20;;
20713;SDS011;10518;50.742;4.226;2023-08-12T00:24:49;6.15;;;2.70;;
20713;SDS011;10518;50.742;4.226;2023-08-12T00:27:14;5.28;;;2.45;;
20713;SDS011;10518;50.742;4.226;2023-08-12T00:29:40;4.20;;;1.92;;
20713;SDS011;10518;50.742;4.226;2023-08-12T00:32:08;3.20;;;2.10;;
20713;SDS011;10518;50.742;4.226;2023-08-12T00:34:34;2.15;;;1.75;;
20713;SDS011;10518;50.742;4.226;2023-08-12T00:37:00;3.20;;;2.13;;
20713;SDS011;10518;50.742;4.226;2023-08-12T00:39:26;2.97;;;2.35;;
20713;SDS011;10518;50.742;4.226;2023-08-12T00:41:52;3.38;;;2.20;;
20713;SDS011;10518;50.742;4.226;2023-08-12T00:44:17;7.40;;;2.30;;
20713;SDS011;10518;50.742;4.226;2023-08-12T00:46:43;3.70;;;2.25;;
20713;SDS011;10518;50.742;4.226;2023-08-12T00:49:09;5.65;;;2.72;;
20713;SDS011;10518;50.742;4.226;2023-08-12T00:51:35;3.17;;;2.35;;
20713;SDS011;10518;50.742;4.226;2023-08-12T00:54:04;4.63;;;2.67;;
20713;SDS011;10518;50.742;4.226;2023-08-12T00:56:31;7.95;;;2.28;;
20713;SDS011;10518;50.742;4.226;2023-08-12T00:59:00;4.22;;;2.47;;
20713;SDS011;10518;50.742;4.226;2023-08-12T01:01:29;3.00;;;2.38;;
20713;SDS011;10518;50.742;4.226;2023-08-12T01:03:56;3.75;;;2.15;;
20713;SDS011;10518;50.742;4.226;2023-08-12T01:06:23;4.00;;;2.35;;
20713;SDS011;10518;50.742;4.226;2023-08-12T01:08:49;6.13;;;2.50;;
20713;SDS011;10518;50.742;4.226;2023-08-12T01:14:00;5.05;;;2.40;;
20713;SDS011;10518;50.742;4.226;2023-08-12T01:16:35;4.13;;;2.28;;
20713;SDS011;10518;50.742;4.226;2023-08-12T01:19:05;5.93;;;1.92;;
20713;SDS011;10518;50.742;4.226;2023-08-12T01:21:34;2.55;;;2.20;;
20713;SDS011;10518;50.742;4.226;2023-08-12T01:24:06;3.30;;;2.38;;
20713;SDS011;10518;50.742;4.226;2023-08-12T01:26:32;3.42;;;2.17;;
20713;SDS011;10518;50.742;4.226;2023-08-12T01:28:57;4.35;;;1.95;;
20713;SDS011;10518;50.742;4.226;2023-08-12T01:31:23;3.38;;;2.20;;
20713;SDS011;10518;50.742;4.226;2023-08-12T01:36:23;7.22;;;2.38;;
20713;SDS011;10518;50.742;4.226;2023-08-12T01:38:50;4.22;;;2.50;;
20713;SDS011;10518;50.742;4.226;2023-08-12T01:41:19;3.65;;;2.20;;
20713;SDS011;10518;50.742;4.226;2023-08-12T01:43:47;4.25;;;2.78;;
20713;SDS011;10518;50.742;4.226;2023-08-12T01:46:13;5.18;;;2.42;;
20713;SDS011;10518;50.742;4.226;2023-08-12T01:48:38;3.60;;;2.35;;
20713;SDS011;10518;50.742;4.226;2023-08-12T01:51:04;4.35;;;2.28;;
20713;SDS011;10518;50.742;4.226;2023-08-12T01:53:30;4.70;;;3.08;;
20713;SDS011;10518;50.742;4.226;2023-08-12T01:55:55;5.43;;;2.90;;
20713;SDS011;10518;50.742;4.226;2023-08-12T01:58:21;6.78;;;2.88;;
20713;SDS011;10518;50.742;4.226;2023-08-12T02:00:46;4.57;;;2.70;;
20713;SDS011;10518;50.742;4.226;2023-08-12T02:03:12;4.75;;;2.60;;
20713;SDS011;10518;50.742;4.226;2023-08-12T02:05:38;5.82;;;2.97;;
20713;SDS011;10518;50.742;4.226;2023-08-12T02:08:04;4.38;;;3.08;;
20713;SDS011;10518;50.742;4.226;2023-08-12T02:10:30;3.83;;;2.55;;
20713;SDS011;10518;50.742;4.226;2023-08-12T02:12:55;6.88;;;2.63;;
20713;SDS011;10518;50.742;4.226;2023-08-12T02:15:21;3.75;;;2.42;;
20713;SDS011;10518;50.742;4.226;2023-08-12T02:17:47;5.22;;;2.88;;
20713;SDS011;10518;50.742;4.226;2023-08-12T02:20:12;4.25;;;2.55;;
20713;SDS011;10518;50.742;4.226;2023-08-12T02:22:38;5.93;;;2.88;;
20713;SDS011;10518;50.742;4.226;2023-08-12T02:25:04;3.58;;;2.45;;
20713;SDS011;10518;50.742;4.226;2023-08-12T02:27:29;4.80;;;2.70;;
20713;SDS011;10518;50.742;4.226;2023-08-12T02:29:55;8.95;;;2.65;;
20713;SDS011;10518;50.742;4.226;2023-08-12T02:32:20;4.03;;;2.85;;
20713;SDS011;10518;50.742;4.226;2023-08-12T02:34:46;3.30;;;2.53;;
20713;SDS011;10518;50.742;4.226;2023-08-12T02:37:12;5.10;;;2.42;;
20713;SDS011;10518;50.742;4.226;2023-08-12T02:39:38;2.90;;;2.40;;
20713;SDS011;10518;50.742;4.226;2023-08-12T02:42:03;4.50;;;2.63;;
20713;SDS011;10518;50.742;4.226;2023-08-12T02:44:29;5.00;;;2.97;;
20713;SDS011;10518;50.742;4.226;2023-08-12T02:46:55;5.78;;;3.13;;
20713;SDS011;10518;50.742;4.226;2023-08-12T02:49:21;5.13;;;2.80;;
20713;SDS011;10518;50.742;4.226;2023-08-12T02:51:46;3.75;;;2.20;;
20713;SDS011;10518;50.742;4.226;2023-08-12T02:54:12;5.00;;;3.00;;
20713;SDS011;10518;50.742;4.226;2023-08-12T02:56:37;5.60;;;2.58;;
20713;SDS011;10518;50.742;4.226;2023-08-12T02:59:03;5.57;;;2.78;;
20713;SDS011;10518;50.742;4.226;2023-08-12T03:01:29;4.60;;;2.80;;
20713;SDS011;10518;50.742;4.226;2023-08-12T03:03:55;5.80;;;2.33;;
20713;SDS011;10518;50.742;4.226;2023-08-12T03:06:20;3.40;;;2.40;;
20713;SDS011;10518;50.742;4.226;2023-08-12T03:08:46;5.20;;;2.75;;
20713;SDS011;10518;50.742;4.226;2023-08-12T03:11:11;3.92;;;2.70;;
20713;SDS011;10518;50.742;4.226;2023-08-12T03:13:37;4.78;;;2.67;;
20713;SDS011;10518;50.742;4.226;2023-08-12T03:16:03;5.30;;;3.05;;
20713;SDS011;10518;50.742;4.226;2023-08-12T03:18:28;4.13;;;2.97;;
20713;SDS011;10518;50.742;4.226;2023-08-12T03:20:54;4.85;;;2.83;;
20713;SDS011;10518;50.742;4.226;2023-08-12T03:23:20;4.13;;;2.53;;
20713;SDS011;10518;50.742;4.226;2023-08-12T03:25:48;4.25;;;2.50;;
20713;SDS011;10518;50.742;4.226;2023-08-12T03:28:14;4.50;;;2.35;;
20713;SDS011;10518;50.742;4.226;2023-08-12T03:30:40;4.45;;;2.70;;
20713;SDS011;10518;50.742;4.226;2023-08-12T03:33:06;5.57;;;2.63;;
20713;SDS011;10518;50.742;4.226;2023-08-12T03:35:31;4.25;;;2.28;;
20713;SDS011;10518;50.742;4.226;2023-08-12T03:37:57;4.13;;;2.35;;
20713;SDS011;10518;50.742;4.226;2023-08-12T03:40:23;3.13;;;2.10;;
20713;SDS011;10518;50.742;4.226;2023-08-12T03:42:48;2.40;;;1.85;;
20713;SDS011;10518;50.742;4.226;2023-08-12T03:45:14;2.90;;;2.42;;
20713;SDS011;10518;50.742;4.226;2023-08-12T03:47:40;2.75;;;2.30;;
20713;SDS011;10518;50.742;4.226;2023-08-12T03:50:05;3.35;;;2.22;;
20713;SDS011;10518;50.742;4.226;2023-08-12T03:52:31;3.33;;;2.22;;
20713;SDS011;10518;50.742;4.226;2023-08-12T03:54:57;3.60;;;1.88;;
20713;SDS011;10518;50.742;4.226;2023-08-12T03:57:23;4.07;;;2.15;;
20713;SDS011;10518;50.742;4.226;2023-08-12T03:59:48;3.50;;;2.42;;
20713;SDS011;10518;50.742;4.226;2023-08-12T04:02:14;2.45;;;1.70;;
20713;SDS011;10518;50.742;4.226;2023-08-12T04:04:39;1.90;;;1.42;;
20713;SDS011;10518;50.742;4.226;2023-08-12T04:07:07;3.35;;;1.85;;
20713;SDS011;10518;50.742;4.226;2023-08-12T04:09:33;2.10;;;1.80;;
20713;SDS011;10518;50.742;4.226;2023-08-12T04:11:59;2.00;;;1.30;;
20713;SDS011;10518;50.742;4.226;2023-08-12T04:14:24;1.13;;;1.02;;
20713;SDS011;10518;50.742;4.226;2023-08-12T04:16:50;1.58;;;1.42;;
20713;SDS011;10518;50.742;4.226;2023-08-12T04:19:16;2.53;;;1.65;;
20713;SDS011;10518;50.742;4.226;2023-08-12T04:21:41;3.45;;;1.40;;
20713;SDS011;10518;50.742;4.226;2023-08-12T04:24:11;3.90;;;2.03;;
20713;SDS011;10518;50.742;4.226;2023-08-12T04:26:36;1.15;;;1.05;;
20713;SDS011;10518;50.742;4.226;2023-08-12T04:29:02;1.55;;;1.30;;
20713;SDS011;10518;50.742;4.226;2023-08-12T04:31:28;2.15;;;1.35;;
20713;SDS011;10518;50.742;4.226;2023-08-12T04:33:53;1.52;;;1.10;;
20713;SDS011;10518;50.742;4.226;2023-08-12T04:36:19;1.90;;;1.33;;
20713;SDS011;10518;50.742;4.226;2023-08-12T04:38:44;3.88;;;1.60;;
20713;SDS011;10518;50.742;4.226;2023-08-12T04:41:10;2.22;;;1.48;;
20713;SDS011;10518;50.742;4.226;2023-08-12T04:43:36;1.98;;;1.50;;
20713;SDS011;10518;50.742;4.226;2023-08-12T04:46:01;2.33;;;1.58;;
20713;SDS011;10518;50.742;4.226;2023-08-12T04:48:27;3.00;;;1.80;;
20713;SDS011;10518;50.742;4.226;2023-08-12T04:50:52;2.08;;;1.52;;
20713;SDS011;10518;50.742;4.226;2023-08-12T04:53:19;1.70;;;1.40;;
20713;SDS011;10518;50.742;4.226;2023-08-12T04:55:45;3.58;;;1.95;;
20713;SDS011;10518;50.742;4.226;2023-08-12T04:58:14;2.47;;;1.80;;
20713;SDS011;10518;50.742;4.226;2023-08-12T05:00:40;2.22;;;1.90;;
20713;SDS011;10518;50.742;4.226;2023-08-12T05:03:05;3.38;;;1.92;;
20713;SDS011;10518;50.742;4.226;2023-08-12T05:05:31;3.10;;;2.05;;
20713;SDS011;10518;50.742;4.226;2023-08-12T05:07:56;2.60;;;1.83;;
20713;SDS011;10518;50.742;4.226;2023-08-12T05:10:22;7.47;;;2.17;;
20713;SDS011;10518;50.742;4.226;2023-08-12T05:12:48;3.35;;;2.17;;
20713;SDS011;10518;50.742;4.226;2023-08-12T05:15:15;4.60;;;2.20;;
20713;SDS011;10518;50.742;4.226;2023-08-12T05:17:41;3.97;;;2.50;;
20713;SDS011;10518;50.742;4.226;2023-08-12T05:20:06;6.43;;;2.97;;
20713;SDS011;10518;50.742;4.226;2023-08-12T05:22:34;4.22;;;3.17;;
20713;SDS011;10518;50.742;4.226;2023-08-12T05:25:00;3.10;;;2.50;;
20713;SDS011;10518;50.742;4.226;2023-08-12T05:27:25;3.75;;;2.47;;
20713;SDS011;10518;50.742;4.226;2023-08-12T05:29:51;4.70;;;2.72;;
20713;SDS011;10518;50.742;4.226;2023-08-12T05:32:16;2.95;;;2.22;;
20713;SDS011;10518;50.742;4.226;2023-08-12T05:34:42;2.92;;;2.15;;
20713;SDS011;10518;50.742;4.226;2023-08-12T05:37:08;3.63;;;2.35;;
20713;SDS011;10518;50.742;4.226;2023-08-12T05:39:34;2.35;;;2.00;;
20713;SDS011;10518;50.742;4.226;2023-08-12T05:41:59;3.22;;;2.30;;
20713;SDS011;10518;50.742;4.226;2023-08-12T05:44:25;2.15;;;1.70;;
20713;SDS011;10518;50.742;4.226;2023-08-12T05:46:50;3.33;;;2.10;;
20713;SDS011;10518;50.742;4.226;2023-08-12T05:49:16;2.80;;;2.13;;
20713;SDS011;10518;50.742;4.226;2023-08-12T05:51:42;3.95;;;1.75;;
20713;SDS011;10518;50.742;4.226;2023-08-12T05:54:07;2.95;;;2.03;;
20713;SDS011;10518;50.742;4.226;2023-08-12T05:56:33;3.17;;;1.92;;
20713;SDS011;10518;50.742;4.226;2023-08-12T05:58:58;3.83;;;2.00;;
20713;SDS011;10518;50.742;4.226;2023-08-12T06:01:24;2.25;;;1.75;;
20713;SDS011;10518;50.742;4.226;2023-08-12T06:03:50;2.15;;;1.63;;
20713;SDS011;10518;50.742;4.226;2023-08-12T06:06:15;2.95;;;1.90;;
20713;SDS011;10518;50.742;4.226;2023-08-12T06:08:41;1.98;;;1.40;;
20713;SDS011;10518;50.742;4.226;2023-08-12T06:11:06;1.48;;;1.30;;
20713;SDS011;10518;50.742;4.226;2023-08-12T06:13:32;1.83;;;1.38;;
20713;SDS011;10518;50.742;4.226;2023-08-12T06:15:58;1.65;;;1.40;;
20713;SDS011;10518;50.742;4.226;2023-08-12T06:18:23;1.95;;;1.15;;
20713;SDS011;10518;50.742;4.226;2023-08-12T06:20:49;1.92;;;1.45;;
20713;SDS011;10518;50.742;4.226;2023-08-12T06:23:15;2.75;;;1.20;;
20713;SDS011;10518;50.742;4.226;2023-08-12T06:25:41;2.53;;;1.50;;
20713;SDS011;10518;50.742;4.226;2023-08-12T06:28:07;0.93;;;0.90;;
20713;SDS011;10518;50.742;4.226;2023-08-12T06:30:34;1.73;;;1.20;;
20713;SDS011;10518;50.742;4.226;2023-08-12T06:33:00;1.45;;;1.27;;
20713;SDS011;10518;50.742;4.226;2023-08-12T06:35:25;1.10;;;1.00;;
20713;SDS011;10518;50.742;4.226;2023-08-12T06:37:51;0.82;;;0.82;;
20713;SDS011;10518;50.742;4.226;2023-08-12T06:40:16;1.10;;;1.00;;
20713;SDS011;10518;50.742;4.226;2023-08-12T06:42:42;1.02;;;0.90;;
20713;SDS011;10518;50.742;4.226;2023-08-12T06:45:08;1.10;;;1.00;;
20713;SDS011;10518;50.742;4.226;2023-08-12T06:47:34;1.65;;;1.10;;
20713;SDS011;10518;50.742;4.226;2023-08-12T06:50:00;1.80;;;0.82;;
20713;SDS011;10518;50.742;4.226;2023-08-12T06:52:25;1.13;;;1.00;;
20713;SDS011;10518;50.742;4.226;2023-08-12T06:54:51;1.13;;;1.00;;
20713;SDS011;10518;50.742;4.226;2023-08-12T06:57:16;0.82;;;0.82;;
20713;SDS011;10518;50.742;4.226;2023-08-12T06:59:42;2.20;;;0.80;;
20713;SDS011;10518;50.742;4.226;2023-08-12T07:02:08;0.90;;;0.80;;
20713;SDS011;10518;50.742;4.226;2023-08-12T07:04:33;0.60;;;0.60;;
20713;SDS011;10518;50.742;4.226;2023-08-12T07:06:59;0.88;;;0.68;;
20713;SDS011;10518;50.742;4.226;2023-08-12T07:09:25;0.63;;;0.60;;
20713;SDS011;10518;50.742;4.226;2023-08-12T07:11:50;0.70;;;0.63;;
20713;SDS011;10518;50.742;4.226;2023-08-12T07:14:16;2.92;;;0.50;;
20713;SDS011;10518;50.742;4.226;2023-08-12T07:16:42;1.65;;;0.50;;
20713;SDS011;10518;50.742;4.226;2023-08-12T07:19:07;1.15;;;0.70;;
20713;SDS011;10518;50.742;4.226;2023-08-12T07:21:33;3.53;;;0.85;;
20713;SDS011;10518;50.742;4.226;2023-08-12T07:23:59;3.85;;;1.05;;
20713;SDS011;10518;50.742;4.226;2023-08-12T07:26:24;1.05;;;0.50;;
20713;SDS011;10518;50.742;4.226;2023-08-12T07:28:50;1.27;;;0.70;;
20713;SDS011;10518;50.742;4.226;2023-08-12T07:31:15;1.15;;;0.73;;
20713;SDS011;10518;50.742;4.226;2023-08-12T07:33:42;0.40;;;0.40;;
20713;SDS011;10518;50.742;4.226;2023-08-12T07:36:07;1.05;;;0.60;;
20713;SDS011;10518;50.742;4.226;2023-08-12T07:38:33;1.55;;;0.77;;
20713;SDS011;10518;50.742;4.226;2023-08-12T07:40:59;0.90;;;0.52;;
20713;SDS011;10518;50.742;4.226;2023-08-12T07:43:25;1.00;;;0.70;;
20713;SDS011;10518;50.742;4.226;2023-08-12T07:45:51;0.73;;;0.55;;
20713;SDS011;10518;50.742;4.226;2023-08-12T07:48:18;6.35;;;0.80;;
20713;SDS011;10518;50.742;4.226;2023-08-12T07:50:45;1.25;;;0.85;;
20713;SDS011;10518;50.742;4.226;2023-08-12T07:53:10;0.60;;;0.60;;
20713;SDS011;10518;50.742;4.226;2023-08-12T07:55:36;1.77;;;1.23;;
20713;SDS011;10518;50.742;4.226;2023-08-12T07:58:01;0.90;;;0.73;;
20713;SDS011;10518;50.742;4.226;2023-08-12T08:00:29;2.33;;;0.70;;
20713;SDS011;10518;50.742;4.226;2023-08-12T08:02:55;0.70;;;0.70;;
20713;SDS011;10518;50.742;4.226;2023-08-12T08:05:20;2.92;;;1.05;;
20713;SDS011;10518;50.742;4.226;2023-08-12T08:07:46;0.50;;;0.50;;
20713;SDS011;10518;50.742;4.226;2023-08-12T08:10:11;1.65;;;0.73;;
20713;SDS011;10518;50.742;4.226;2023-08-12T08:12:37;0.60;;;0.50;;
20713;SDS011;10518;50.742;4.226;2023-08-12T08:15:03;1.02;;;0.57;;
20713;SDS011;10518;50.742;4.226;2023-08-12T08:17:29;4.10;;;1.13;;
20713;SDS011;10518;50.742;4.226;2023-08-12T08:19:55;0.50;;;0.50;;
20713;SDS011;10518;50.742;4.226;2023-08-12T08:22:21;2.05;;;0.75;;
20713;SDS011;10518;50.742;4.226;2023-08-12T08:24:46;1.58;;;0.70;;
20713;SDS011;10518;50.742;4.226;2023-08-12T08:27:12;2.38;;;0.55;;
20713;SDS011;10518;50.742;4.226;2023-08-12T08:29:39;0.60;;;0.50;;
20713;SDS011;10518;50.742;4.226;2023-08-12T08:32:05;0.77;;;0.50;;
20713;SDS011;10518;50.742;4.226;2023-08-12T08:34:31;0.85;;;0.68;;
20713;SDS011;10518;50.742;4.226;2023-08-12T08:36:56;0.70;;;0.70;;
20713;SDS011;10518;50.742;4.226;2023-08-12T08:39:22;0.80;;;0.60;;
20713;SDS011;10518;50.742;4.226;2023-08-12T08:41:48;0.60;;;0.60;;
20713;SDS011;10518;50.742;4.226;2023-08-12T08:44:14;0.68;;;0.65;;
20713;SDS011;10518;50.742;4.226;2023-08-12T08:46:41;0.82;;;0.70;;
20713;SDS011;10518;50.742;4.226;2023-08-12T08:49:08;1.42;;;0.70;;
20713;SDS011;10518;50.742;4.226;2023-08-12T08:51:36;2.92;;;1.30;;
20713;SDS011;10518;50.742;4.226;2023-08-12T08:54:04;2.45;;;1.30;;
20713;SDS011;10518;50.742;4.226;2023-08-12T08:56:31;2.22;;;1.05;;
20713;SDS011;10518;50.742;4.226;2023-08-12T08:58:57;1.98;;;0.90;;
20713;SDS011;10518;50.742;4.226;2023-08-12T09:01:23;3.95;;;0.98;;
20713;SDS011;10518;50.742;4.226;2023-08-12T09:03:52;1.65;;;0.80;;
20713;SDS011;10518;50.742;4.226;2023-08-12T09:06:21;3.63;;;1.35;;
20713;SDS011;10518;50.742;4.226;2023-08-12T09:08:51;1.33;;;0.88;;
20713;SDS011;10518;50.742;4.226;2023-08-12T09:11:17;3.63;;;1.20;;
20713;SDS011;10518;50.742;4.226;2023-08-12T09:13:44;1.05;;;0.80;;
20713;SDS011;10518;50.742;4.226;2023-08-12T09:16:10;4.45;;;1.45;;
20713;SDS011;10518;50.742;4.226;2023-08-12T09:18:36;0.88;;;0.88;;
20713;SDS011;10518;50.742;4.226;2023-08-12T09:21:03;1.75;;;0.88;;
20713;SDS011;10518;50.742;4.226;2023-08-12T09:23:33;1.83;;;1.00;;
20713;SDS011;10518;50.742;4.226;2023-08-12T09:26:00;1.10;;;0.90;;
20713;SDS011;10518;50.742;4.226;2023-08-12T09:28:26;1.38;;;1.27;;
20713;SDS011;10518;50.742;4.226;2023-08-12T09:30:52;1.65;;;1.00;;
20713;SDS011;10518;50.742;4.226;2023-08-12T09:33:18;3.42;;;1.45;;
20713;SDS011;10518;50.742;4.226;2023-08-12T09:35:50;1.95;;;0.75;;
20713;SDS011;10518;50.742;4.226;2023-08-12T09:38:15;2.25;;;0.82;;
20713;SDS011;10518;50.742;4.226;2023-08-12T09:40:41;1.15;;;0.73;;
20713;SDS011;10518;50.742;4.226;2023-08-12T09:43:07;1.00;;;0.63;;
20713;SDS011;10518;50.742;4.226;2023-08-12T09:45:33;2.40;;;0.90;;
20713;SDS011;10518;50.742;4.226;2023-08-12T09:47:59;2.60;;;0.85;;
20713;SDS011;10518;50.742;4.226;2023-08-12T09:50:26;1.08;;;0.82;;
20713;SDS011;10518;50.742;4.226;2023-08-12T09:52:53;2.20;;;0.90;;
20713;SDS011;10518;50.742;4.226;2023-08-12T09:55:20;2.42;;;1.10;;
20713;SDS011;10518;50.742;4.226;2023-08-12T09:57:48;1.75;;;0.65;;
20713;SDS011;10518;50.742;4.226;2023-08-12T10:00:18;0.80;;;0.70;;
20713;SDS011;10518;50.742;4.226;2023-08-12T10:02:46;0.70;;;0.70;;
20713;SDS011;10518;50.742;4.226;2023-08-12T10:05:15;1.58;;;0.70;;
20713;SDS011;10518;50.742;4.226;2023-08-12T10:07:45;1.95;;;0.70;;
20713;SDS011;10518;50.742;4.226;2023-08-12T10:10:11;0.95;;;0.80;;
20713;SDS011;10518;50.742;4.226;2023-08-12T10:12:38;0.80;;;0.68;;
20713;SDS011;10518;50.742;4.226;2023-08-12T10:15:05;2.25;;;1.02;;
20713;SDS011;10518;50.742;4.226;2023-08-12T10:17:32;0.93;;;0.77;;
20713;SDS011;10518;50.742;4.226;2023-08-12T10:19:58;1.27;;;0.85;;
20713;SDS011;10518;50.742;4.226;2023-08-12T10:22:28;1.90;;;0.77;;
20713;SDS011;10518;50.742;4.226;2023-08-12T10:24:58;2.13;;;0.90;;
20713;SDS011;10518;50.742;4.226;2023-08-12T10:27:25;0.98;;;0.85;;
20713;SDS011;10518;50.742;4.226;2023-08-12T10:29:51;0.52;;;0.52;;
20713;SDS011;10518;50.742;4.226;2023-08-12T10:32:17;1.05;;;0.88;;
20713;SDS011;10518;50.742;4.226;2023-08-12T10:34:43;1.85;;;0.73;;
20713;SDS011;10518;50.742;4.226;2023-08-12T10:37:09;2.53;;;0.57;;
20713;SDS011;10518;50.742;4.226;2023-08-12T10:39:36;3.05;;;1.30;;
20713;SDS011;10518;50.742;4.226;2023-08-12T10:42:03;1.27;;;0.73;;
20713;SDS011;10518;50.742;4.226;2023-08-12T10:44:40;1.15;;;0.68;;
20713;SDS011;10518;50.742;4.226;2023-08-12T10:47:09;1.90;;;0.70;;
20713;SDS011;10518;50.742;4.226;2023-08-12T10:49:39;1.23;;;0.55;;
20713;SDS011;10518;50.742;4.226;2023-08-12T10:52:28;1.10;;;0.73;;
20713;SDS011;10518;50.742;4.226;2023-08-12T10:55:15;3.42;;;0.90;;
20713;SDS011;10518;50.742;4.226;2023-08-12T10:57:48;0.75;;;0.70;;
20713;SDS011;10518;50.742;4.226;2023-08-12T11:00:18;3.70;;;1.00;;
20713;SDS011;10518;50.742;4.226;2023-08-12T11:02:51;5.00;;;0.90;;
20713;SDS011;10518;50.742;4.226;2023-08-12T11:05:18;2.85;;;0.95;;
20713;SDS011;10518;50.742;4.226;2023-08-12T11:07:46;1.95;;;1.38;;
20713;SDS011;10518;50.742;4.226;2023-08-12T11:10:26;1.95;;;0.90;;
20713;SDS011;10518;50.742;4.226;2023-08-12T11:12:55;1.33;;;0.80;;
20713;SDS011;10518;50.742;4.226;2023-08-12T11:18:06;2.58;;;1.20;;
20713;SDS011;10518;50.742;4.226;2023-08-12T11:20:39;2.38;;;1.30;;
20713;SDS011;10518;50.742;4.226;2023-08-12T11:23:06;1.30;;;1.20;;
20713;SDS011;10518;50.742;4.226;2023-08-12T11:25:32;2.78;;;1.58;;
20713;SDS011;10518;50.742;4.226;2023-08-12T11:27:59;4.55;;;1.25;;
20713;SDS011;10518;50.742;4.226;2023-08-12T11:30:25;1.63;;;1.27;;
20713;SDS011;10518;50.742;4.226;2023-08-12T11:32:52;3.88;;;2.10;;
20713;SDS011;10518;50.742;4.226;2023-08-12T11:35:19;2.90;;;2.10;;
20713;SDS011;10518;50.742;4.226;2023-08-12T11:37:46;3.38;;;2.65;;
20713;SDS011;10518;50.742;4.226;2023-08-12T11:40:14;4.43;;;2.40;;
20713;SDS011;10518;50.742;4.226;2023-08-12T11:42:43;3.45;;;2.60;;
20713;SDS011;10518;50.742;4.226;2023-08-12T11:45:10;4.55;;;2.47;;
20713;SDS011;10518;50.742;4.226;2023-08-12T11:47:37;4.00;;;2.70;;
20713;SDS011;10518;50.742;4.226;2023-08-12T11:50:07;5.60;;;3.30;;
20713;SDS011;10518;50.742;4.226;2023-08-12T11:52:34;5.50;;;2.65;;
20713;SDS011;10518;50.742;4.226;2023-08-12T11:55:01;2.35;;;2.10;;
20713;SDS011;10518;50.742;4.226;2023-08-12T11:57:27;5.60;;;1.75;;
20713;SDS011;10518;50.742;4.226;2023-08-12T11:59:57;2.40;;;1.80;;
20713;SDS011;10518;50.742;4.226;2023-08-12T12:02:24;2.00;;;1.80;;
20713;SDS011;10518;50.742;4.226;2023-08-12T12:04:53;5.45;;;1.88;;
20713;SDS011;10518;50.742;4.226;2023-08-12T12:07:19;3.40;;;1.63;;
20713;SDS011;10518;50.742;4.226;2023-08-12T12:09:46;1.95;;;1.42;;
20713;SDS011;10518;50.742;4.226;2023-08-12T12:12:15;2.45;;;1.58;;
20713;SDS011;10518;50.742;4.226;2023-08-12T12:14:42;2.25;;;1.40;;
20713;SDS011;10518;50.742;4.226;2023-08-12T12:17:08;2.70;;;0.98;;
20713;SDS011;10518;50.742;4.226;2023-08-12T12:19:39;1.35;;;0.90;;
20713;SDS011;10518;50.742;4.226;2023-08-12T12:22:05;1.85;;;0.90;;
20713;SDS011;10518;50.742;4.226;2023-08-12T12:24:43;2.42;;;1.20;;
20713;SDS011;10518;50.742;4.226;2023-08-12T12:27:11;2.55;;;0.80;;
20713;SDS011;10518;50.742;4.226;2023-08-12T12:29:37;1.70;;;0.90;;
20713;SDS011;10518;50.742;4.226;2023-08-12T12:32:03;1.00;;;0.90;;
20713;SDS011;10518;50.742;4.226;2023-08-12T12:34:29;1.52;;;1.02;;
20713;SDS011;10518;50.742;4.226;2023-08-12T12:36:55;1.17;;;0.70;;
20713;SDS011;10518;50.742;4.226;2023-08-12T12:39:20;1.10;;;1.00;;
20713;SDS011;10518;50.742;4.226;2023-08-12T12:41:48;2.08;;;0.88;;
20713;SDS011;10518;50.742;4.226;2023-08-12T12:44:14;2.50;;;0.90;;
20713;SDS011;10518;50.742;4.226;2023-08-12T12:46:40;0.80;;;0.80;;
20713;SDS011;10518;50.742;4.226;2023-08-12T12:49:05;0.82;;;0.80;;
20713;SDS011;10518;50.742;4.226;2023-08-12T12:51:31;0.93;;;0.80;;
20713;SDS011;10518;50.742;4.226;2023-08-12T12:53:57;1.92;;;0.90;;
20713;SDS011;10518;50.742;4.226;2023-08-12T12:56:22;2.40;;;0.60;;
20713;SDS011;10518;50.742;4.226;2023-08-12T12:58:48;1.15;;;1.00;;
20713;SDS011;10518;50.742;4.226;2023-08-12T13:01:13;4.75;;;1.50;;
20713;SDS011;10518;50.742;4.226;2023-08-12T13:03:39;1.10;;;0.80;;
20713;SDS011;10518;50.742;4.226;2023-08-12T13:06:05;5.07;;;1.05;;
20713;SDS011;10518;50.742;4.226;2023-08-12T13:08:31;0.98;;;0.85;;
20713;SDS011;10518;50.742;4.226;2023-08-12T13:10:56;0.80;;;0.63;;
20713;SDS011;10518;50.742;4.226;2023-08-12T13:13:22;1.98;;;1.27;;
20713;SDS011;10518;50.742;4.226;2023-08-12T13:15:48;1.35;;;0.80;;
20713;SDS011;10518;50.742;4.226;2023-08-12T13:18:14;2.55;;;0.90;;
20713;SDS011;10518;50.742;4.226;2023-08-12T13:20:40;0.95;;;0.82;;
20713;SDS011;10518;50.742;4.226;2023-08-12T13:23:05;1.75;;;1.00;;
20713;SDS011;10518;50.742;4.226;2023-08-12T13:25:32;0.70;;;0.70;;
20713;SDS011;10518;50.742;4.226;2023-08-12T13:27:59;0.80;;;0.57;;
20713;SDS011;10518;50.742;4.226;2023-08-12T13:30:26;1.85;;;0.95;;
20713;SDS011;10518;50.742;4.226;2023-08-12T13:32:52;2.67;;;0.93;;
20713;SDS011;10518;50.742;4.226;2023-08-12T13:35:18;1.65;;;1.08;;
20713;SDS011;10518;50.742;4.226;2023-08-12T13:37:44;1.48;;;0.90;;
20713;SDS011;10518;50.742;4.226;2023-08-12T13:40:09;1.00;;;0.70;;
20713;SDS011;10518;50.742;4.226;2023-08-12T13:42:36;2.05;;;1.05;;
20713;SDS011;10518;50.742;4.226;2023-08-12T13:45:03;1.48;;;0.75;;
20713;SDS011;10518;50.742;4.226;2023-08-12T13:47:29;2.63;;;0.77;;
20713;SDS011;10518;50.742;4.226;2023-08-12T13:49:55;0.50;;;0.50;;
20713;SDS011;10518;50.742;4.226;2023-08-12T13:52:21;0.60;;;0.60;;
20713;SDS011;10518;50.742;4.226;2023-08-12T13:54:46;1.88;;;0.60;;
20713;SDS011;10518;50.742;4.226;2023-08-12T13:57:12;1.20;;;0.70;;
20713;SDS011;10518;50.742;4.226;2023-08-12T13:59:38;2.58;;;0.77;;
20713;SDS011;10518;50.742;4.226;2023-08-12T14:02:05;3.17;;;0.88;;
20713;SDS011;10518;50.742;4.226;2023-08-12T14:04:31;2.53;;;0.75;;
20713;SDS011;10518;50.742;4.226;2023-08-12T14:06:57;3.72;;;0.90;;
20713;SDS011;10518;50.742;4.226;2023-08-12T14:09:22;1.98;;;0.80;;
20713;SDS011;10518;50.742;4.226;2023-08-12T14:11:48;1.02;;;0.93;;
20713;SDS011;10518;50.742;4.226;2023-08-12T14:14:14;2.22;;;0.85;;
20713;SDS011;10518;50.742;4.226;2023-08-12T14:16:39;1.63;;;0.88;;
20713;SDS011;10518;50.742;4.226;2023-08-12T14:19:05;1.75;;;0.82;;
20713;SDS011;10518;50.742;4.226;2023-08-12T14:21:31;2.38;;;0.75;;
20713;SDS011;10518;50.742;4.226;2023-08-12T14:23:56;2.90;;;0.98;;
20713;SDS011;10518;50.742;4.226;2023-08-12T14:26:22;1.13;;;0.70;;
20713;SDS011;10518;50.742;4.226;2023-08-12T14:28:48;0.80;;;0.80;;
20713;SDS011;10518;50.742;4.226;2023-08-12T14:31:13;2.70;;;0.80;;
20713;SDS011;10518;50.742;4.226;2023-08-12T14:33:39;1.63;;;0.68;;
20713;SDS011;10518;50.742;4.226;2023-08-12T14:36:04;9.43;;;0.85;;
20713;SDS011;10518;50.742;4.226;2023-08-12T14:38:31;3.53;;;0.90;;
20713;SDS011;10518;50.742;4.226;2023-08-12T14:40:57;2.35;;;1.17;;
20713;SDS011;10518;50.742;4.226;2023-08-12T14:43:23;2.97;;;0.65;;
20713;SDS011;10518;50.742;4.226;2023-08-12T14:45:49;2.83;;;0.75;;
20713;SDS011;10518;50.742;4.226;2023-08-12T14:48:14;1.02;;;0.63;;
20713;SDS011;10518;50.742;4.226;2023-08-12T14:50:42;4.28;;;0.57;;